Time;durP1;ratioP1;P1;durP2;ratioP2;P2;SDS_P1;SDS_P2;PMS_P1;PMS_P2;Temp;Humidity;BMP_temperature;BMP_pressure;BME280_temperature;BME280_humidity;BME280_pressure;Samples;Min_cycle;Max_cycle;Signal;HPM_P1;HPM_P2
2023/11/04 00:01:57;;;;;;;3.33;1.30;;;;;;;;;;5010887;28;20205;-65
2023/11/04 00:04:26;;;;;;;1.30;1.20;;;;;;;;;;4998373;28;20228;-64
2023/11/04 00:06:55;;;;;;;2.23;1.50;;;;;;;;;;5004008;28;21305;-65
2023/11/04 00:09:23;;;;;;;1.40;1.20;;;;;;;;;;5005381;28;20207;-65
2023/11/04 00:12:14;;;;;;;1.57;1.40;;;;;;;;;;5001992;28;20248;-65
2023/11/04 00:14:42;;;;;;;4.20;1.50;;;;;;;;;;5004856;28;20220;-65
2023/11/04 00:17:10;;;;;;;1.70;1.50;;;;;;;;;;5002077;28;20216;-65
2023/11/04 00:19:40;;;;;;;1.77;1.13;;;;;;;;;;5008844;28;20204;-65
2023/11/04 00:22:08;;;;;;;1.40;1.30;;;;;;;;;;5021456;28;20208;-64
2023/11/04 00:24:36;;;;;;;0.90;0.90;;;;;;;;;;5021355;28;20235;-65
2023/11/04 00:27:05;;;;;;;1.50;1.40;;;;;;;;;;5006070;28;20203;-65
2023/11/04 00:29:33;;;;;;;1.80;1.47;;;;;;;;;;5012145;28;20209;-65
2023/11/04 00:32:01;;;;;;;1.70;1.40;;;;;;;;;;5015058;28;20205;-65
2023/11/04 00:34:29;;;;;;;2.03;1.30;;;;;;;;;;5019334;28;20279;-65
2023/11/04 00:36:59;;;;;;;2.63;1.60;;;;;;;;;;5021005;28;20242;-65
2023/11/04 00:39:27;;;;;;;1.40;1.30;;;;;;;;;;5019534;28;20208;-65
2023/11/04 00:41:55;;;;;;;2.57;1.40;;;;;;;;;;5011023;28;20211;-64
2023/11/04 00:44:23;;;;;;;2.83;1.97;;;;;;;;;;5020235;28;20624;-65
2023/11/04 00:46:51;;;;;;;1.67;1.33;;;;;;;;;;5020251;28;20231;-65
2023/11/04 00:49:21;;;;;;;1.60;1.40;;;;;;;;;;5020221;28;20227;-65
2023/11/04 00:51:49;;;;;;;4.63;1.47;;;;;;;;;;5018809;28;20646;-65
2023/11/04 00:54:18;;;;;;;5.20;1.63;;;;;;;;;;5020192;28;20256;-64
2023/11/04 00:56:46;;;;;;;1.40;1.30;;;;;;;;;;5020045;28;20205;-65
2023/11/04 00:59:15;;;;;;;1.93;1.20;;;;;;;;;;5016451;28;20286;-65
2023/11/04 01:01:43;;;;;;;2.03;1.80;;;;;;;;;;5020035;28;20638;-65
2023/11/04 01:04:12;;;;;;;1.90;1.60;;;;;;;;;;5003168;28;20267;-64
2023/11/04 01:06:40;;;;;;;1.40;1.30;;;;;;;;;;5004974;28;20224;-65
2023/11/04 01:09:08;;;;;;;1.77;1.30;;;;;;;;;;5020006;28;20278;-64
2023/11/04 01:11:37;;;;;;;1.77;1.50;;;;;;;;;;5020484;28;20368;-65
2023/11/04 01:14:05;;;;;;;1.23;1.13;;;;;;;;;;5019200;28;20274;-64
2023/11/04 01:16:34;;;;;;;1.83;1.53;;;;;;;;;;5018795;28;20207;-64
2023/11/04 01:19:02;;;;;;;1.57;1.47;;;;;;;;;;5019608;28;20208;-65
2023/11/04 01:21:31;;;;;;;2.13;1.43;;;;;;;;;;5010908;28;20219;-64
2023/11/04 01:23:59;;;;;;;3.00;1.40;;;;;;;;;;5000575;28;20225;-65
2023/11/04 01:26:27;;;;;;;2.53;1.43;;;;;;;;;;5016388;28;20224;-64
2023/11/04 01:28:56;;;;;;;1.60;1.50;;;;;;;;;;5016789;28;20211;-65
2023/11/04 01:31:24;;;;;;;2.00;1.57;;;;;;;;;;5020265;28;20219;-65
2023/11/04 01:33:52;;;;;;;1.50;1.30;;;;;;;;;;5008156;28;20236;-64
2023/11/04 01:36:21;;;;;;;3.80;1.60;;;;;;;;;;5000314;28;20209;-65
2023/11/04 01:38:49;;;;;;;2.07;1.53;;;;;;;;;;5013860;28;20239;-64
2023/11/04 01:41:17;;;;;;;2.67;1.50;;;;;;;;;;5008896;28;20213;-64
2023/11/04 01:43:45;;;;;;;2.67;1.80;;;;;;;;;;5013038;28;20298;-64
2023/11/04 01:46:17;;;;;;;3.60;1.83;;;;;;;;;;5019246;28;20223;-64
2023/11/04 01:48:46;;;;;;;2.20;1.63;;;;;;;;;;5007287;28;20205;-65
2023/11/04 01:51:15;;;;;;;2.20;1.77;;;;;;;;;;5001041;28;20208;-65
2023/11/04 01:53:43;;;;;;;3.73;1.30;;;;;;;;;;5013936;28;20236;-65
2023/11/04 01:56:13;;;;;;;1.50;1.40;;;;;;;;;;5016200;28;20610;-65
2023/11/04 01:58:42;;;;;;;1.73;1.20;;;;;;;;;;5015652;28;20244;-64
2023/11/04 02:01:10;;;;;;;1.40;1.30;;;;;;;;;;5032923;28;20206;-64
2023/11/04 02:03:40;;;;;;;1.50;1.20;;;;;;;;;;5035514;28;20682;-64
2023/11/04 02:06:08;;;;;;;1.27;1.03;;;;;;;;;;5039253;28;20226;-65
2023/11/04 02:08:36;;;;;;;1.20;1.20;;;;;;;;;;5027204;28;20234;-65
2023/11/04 02:11:05;;;;;;;1.40;1.30;;;;;;;;;;5019449;28;20208;-64
2023/11/04 02:13:34;;;;;;;1.13;1.07;;;;;;;;;;5028282;28;20224;-64
2023/11/04 02:16:02;;;;;;;2.07;1.30;;;;;;;;;;5039069;28;20211;-65
2023/11/04 02:18:30;;;;;;;1.57;1.07;;;;;;;;;;5039031;28;20211;-65
2023/11/04 02:20:59;;;;;;;1.60;1.43;;;;;;;;;;5034228;28;20624;-64
2023/11/04 02:23:28;;;;;;;1.40;1.30;;;;;;;;;;5019094;28;20598;-64
2023/11/04 02:25:56;;;;;;;1.30;1.20;;;;;;;;;;5018959;28;20211;-64
2023/11/04 02:28:24;;;;;;;1.53;1.20;;;;;;;;;;5030354;28;20204;-64
2023/11/04 02:30:52;;;;;;;1.00;0.97;;;;;;;;;;5027092;28;20215;-64
2023/11/04 02:33:20;;;;;;;1.50;1.20;;;;;;;;;;5032136;28;20254;-65
2023/11/04 02:35:49;;;;;;;1.43;1.33;;;;;;;;;;5018835;28;20212;-64
2023/11/04 02:38:19;;;;;;;1.73;1.03;;;;;;;;;;5027543;28;20200;-66
2023/11/04 02:40:47;;;;;;;2.50;1.50;;;;;;;;;;5031919;28;20247;-65
2023/11/04 02:43:15;;;;;;;3.87;1.40;;;;;;;;;;5026586;28;20547;-65
2023/11/04 02:45:43;;;;;;;1.30;1.20;;;;;;;;;;5024431;28;20263;-64
2023/11/04 02:48:11;;;;;;;1.53;1.20;;;;;;;;;;5033446;28;20230;-64
2023/11/04 02:50:39;;;;;;;1.20;1.10;;;;;;;;;;5018500;28;20212;-64
2023/11/04 02:53:08;;;;;;;1.90;1.13;;;;;;;;;;5026305;28;20725;-64
2023/11/04 02:55:37;;;;;;;3.37;1.37;;;;;;;;;;5035319;28;20216;-65
2023/11/04 02:58:05;;;;;;;1.13;1.03;;;;;;;;;;5023381;28;20306;-64
2023/11/04 03:00:33;;;;;;;3.20;1.17;;;;;;;;;;5030645;28;20200;-65
2023/11/04 03:03:02;;;;;;;1.90;1.10;;;;;;;;;;5032024;28;20216;-64
2023/11/04 03:05:30;;;;;;;1.40;1.30;;;;;;;;;;5030298;28;20203;-65
2023/11/04 03:08:04;;;;;;;0.90;0.90;;;;;;;;;;5022088;28;20226;-64
2023/11/04 03:10:32;;;;;;;1.93;1.20;;;;;;;;;;5018549;28;20270;-64
2023/11/04 03:13:02;;;;;;;1.60;1.10;;;;;;;;;;5027770;28;20615;-64
2023/11/04 03:15:30;;;;;;;1.83;1.30;;;;;;;;;;5018553;28;20204;-65
2023/11/04 03:17:58;;;;;;;1.27;1.20;;;;;;;;;;5018658;28;20200;-64
2023/11/04 03:20:27;;;;;;;2.23;1.33;;;;;;;;;;5031475;28;20566;-65
2023/11/04 03:22:55;;;;;;;2.27;1.20;;;;;;;;;;5037361;28;20200;-64
2023/11/04 03:25:23;;;;;;;1.20;1.10;;;;;;;;;;5038127;28;20207;-64
2023/11/04 03:27:51;;;;;;;1.30;1.20;;;;;;;;;;5033415;28;20258;-65
2023/11/04 03:30:22;;;;;;;1.50;1.20;;;;;;;;;;5037217;28;20215;-65
2023/11/04 03:32:50;;;;;;;1.03;1.00;;;;;;;;;;5021630;28;20211;-66
2023/11/04 03:35:18;;;;;;;2.70;0.83;;;;;;;;;;5037589;28;20246;-65
2023/11/04 03:37:46;;;;;;;1.43;1.20;;;;;;;;;;5035959;28;20249;-65
2023/11/04 03:40:15;;;;;;;1.23;1.03;;;;;;;;;;5035098;28;20577;-64
2023/11/04 03:42:43;;;;;;;1.13;1.10;;;;;;;;;;5027210;28;20203;-65
2023/11/04 03:45:12;;;;;;;2.37;1.40;;;;;;;;;;5036751;28;20220;-63
2023/11/04 03:47:42;;;;;;;1.90;1.43;;;;;;;;;;5036737;28;20227;-64
2023/11/04 03:50:10;;;;;;;1.00;0.90;;;;;;;;;;5032277;28;20208;-65
2023/11/04 03:52:38;;;;;;;1.47;0.90;;;;;;;;;;5026680;28;20196;-64
2023/11/04 03:55:08;;;;;;;1.60;1.17;;;;;;;;;;5028002;28;20678;-65
2023/11/04 03:57:36;;;;;;;2.13;1.03;;;;;;;;;;5025065;28;20196;-65
2023/11/04 04:00:06;;;;;;;0.90;0.90;;;;;;;;;;5026361;28;20220;-63
2023/11/04 04:02:34;;;;;;;1.40;1.30;;;;;;;;;;5024812;28;20231;-65
2023/11/04 04:05:04;;;;;;;1.50;0.97;;;;;;;;;;5029418;28;20224;-62
2023/11/04 04:07:33;;;;;;;1.53;1.30;;;;;;;;;;5025919;28;20630;-65
2023/11/04 04:10:01;;;;;;;0.97;0.80;;;;;;;;;;5028365;28;20200;-64
2023/11/04 04:12:29;;;;;;;1.57;1.00;;;;;;;;;;5028115;28;20226;-66
2023/11/04 04:14:57;;;;;;;1.43;1.17;;;;;;;;;;5028398;28;20330;-65
2023/11/04 04:17:26;;;;;;;1.47;0.80;;;;;;;;;;5030660;28;20574;-65
2023/11/04 04:19:54;;;;;;;1.37;1.17;;;;;;;;;;5028562;28;20200;-63
2023/11/04 04:22:23;;;;;;;1.00;1.00;;;;;;;;;;5024763;28;20211;-65
2023/11/04 04:24:52;;;;;;;1.80;1.27;;;;;;;;;;5026707;28;20717;-64
2023/11/04 04:27:20;;;;;;;1.37;1.27;;;;;;;;;;5025380;28;20272;-65
2023/11/04 04:29:49;;;;;;;1.83;1.00;;;;;;;;;;5028402;28;20204;-64
2023/11/04 04:32:17;;;;;;;1.27;0.90;;;;;;;;;;5024783;28;20204;-65
2023/11/04 04:34:48;;;;;;;1.00;1.00;;;;;;;;;;5027181;28;20227;-65
2023/11/04 04:37:16;;;;;;;1.37;1.27;;;;;;;;;;5025935;28;20199;-65
2023/11/04 04:39:46;;;;;;;1.63;1.20;;;;;;;;;;5027445;28;20208;-65
2023/11/04 04:42:15;;;;;;;0.90;0.90;;;;;;;;;;5020570;28;20549;-65
2023/11/04 04:44:43;;;;;;;1.47;0.80;;;;;;;;;;5027554;28;20223;-65
2023/11/04 04:47:12;;;;;;;0.90;0.90;;;;;;;;;;5026010;28;20659;-65
2023/11/04 04:49:42;;;;;;;1.00;1.00;;;;;;;;;;5028322;28;20218;-65
2023/11/04 04:52:11;;;;;;;1.10;1.10;;;;;;;;;;5028313;28;20212;-65
2023/11/04 04:54:42;;;;;;;1.10;1.10;;;;;;;;;;5033328;28;20226;-64
2023/11/04 04:57:14;;;;;;;1.20;1.03;;;;;;;;;;5029546;28;20214;-65
2023/11/04 04:59:43;;;;;;;1.10;1.00;;;;;;;;;;5030305;28;20257;-64
2023/11/04 05:02:11;;;;;;;3.90;1.10;;;;;;;;;;5029354;28;20304;-65
2023/11/04 05:04:39;;;;;;;1.47;1.10;;;;;;;;;;5035576;28;20266;-65
2023/11/04 05:07:07;;;;;;;2.63;1.00;;;;;;;;;;5037463;28;20605;-64
2023/11/04 05:09:35;;;;;;;1.20;1.10;;;;;;;;;;5039611;28;20258;-65
2023/11/04 05:12:04;;;;;;;0.80;0.80;;;;;;;;;;5038636;28;20562;-64
2023/11/04 05:14:33;;;;;;;1.47;0.73;;;;;;;;;;5032677;28;20231;-64
2023/11/04 05:17:01;;;;;;;0.90;0.90;;;;;;;;;;5039386;28;20212;-65
2023/11/04 05:19:29;;;;;;;1.53;1.00;;;;;;;;;;5039693;28;20203;-62
2023/11/04 05:21:57;;;;;;;1.27;0.80;;;;;;;;;;5035230;28;20663;-65
2023/11/04 05:24:26;;;;;;;0.60;0.60;;;;;;;;;;5039100;28;20266;-63
2023/11/04 05:26:54;;;;;;;1.13;1.03;;;;;;;;;;5036898;28;20207;-64
2023/11/04 05:29:22;;;;;;;0.80;0.80;;;;;;;;;;5032463;28;20699;-65
2023/11/04 05:31:52;;;;;;;0.80;0.80;;;;;;;;;;5021963;28;20676;-65
2023/11/04 05:34:20;;;;;;;0.70;0.70;;;;;;;;;;5020316;28;20243;-64
2023/11/04 05:36:48;;;;;;;1.10;1.00;;;;;;;;;;5020933;28;20619;-65
2023/11/04 05:39:16;;;;;;;1.00;1.00;;;;;;;;;;5020377;28;20238;-64
2023/11/04 05:41:44;;;;;;;1.30;1.10;;;;;;;;;;5032563;28;20215;-65
2023/11/04 05:44:12;;;;;;;2.63;1.13;;;;;;;;;;5020090;28;20232;-65
2023/11/04 05:46:41;;;;;;;1.00;0.80;;;;;;;;;;5019820;28;20215;-65
2023/11/04 05:49:10;;;;;;;1.00;0.90;;;;;;;;;;5020005;28;20228;-64
2023/11/04 05:51:38;;;;;;;0.93;0.70;;;;;;;;;;5019892;28;20208;-65
2023/11/04 05:54:09;;;;;;;1.33;0.90;;;;;;;;;;5025221;28;20231;-64
2023/11/04 05:56:37;;;;;;;1.50;1.00;;;;;;;;;;5022189;28;20204;-64
2023/11/04 05:59:05;;;;;;;0.60;0.60;;;;;;;;;;5019624;28;20232;-65
2023/11/04 06:01:33;;;;;;;3.17;0.60;;;;;;;;;;5019669;28;20246;-65
2023/11/04 06:04:02;;;;;;;1.30;0.83;;;;;;;;;;5023342;28;20224;-63
2023/11/04 06:06:31;;;;;;;0.97;0.97;;;;;;;;;;5019372;28;20212;-65
2023/11/04 06:09:00;;;;;;;2.90;0.77;;;;;;;;;;5019706;28;20232;-63
2023/11/04 06:11:28;;;;;;;1.80;0.73;;;;;;;;;;5021411;28;20686;-63
2023/11/04 06:13:56;;;;;;;0.60;0.60;;;;;;;;;;5018480;28;20231;-64
2023/11/04 06:16:33;;;;;;;0.80;0.80;;;;;;;;;;5031576;28;20203;-62
2023/11/04 06:19:02;;;;;;;0.50;0.50;;;;;;;;;;5036369;28;20203;-64
2023/11/04 06:21:33;;;;;;;0.87;0.87;;;;;;;;;;5036932;28;20212;-64
2023/11/04 06:24:02;;;;;;;0.70;0.70;;;;;;;;;;5021417;28;20264;-63
2023/11/04 06:26:30;;;;;;;0.70;0.60;;;;;;;;;;5023715;28;20660;-63
2023/11/04 06:28:58;;;;;;;1.90;0.93;;;;;;;;;;5030772;28;20223;-64
2023/11/04 06:31:26;;;;;;;1.30;0.97;;;;;;;;;;5023483;28;20208;-63
2023/11/04 06:33:54;;;;;;;1.33;0.80;;;;;;;;;;5035614;28;20761;-63
2023/11/04 06:36:22;;;;;;;1.00;0.90;;;;;;;;;;5036739;28;20206;-62
2023/11/04 06:38:52;;;;;;;1.03;0.80;;;;;;;;;;5035103;28;20655;-63
2023/11/04 06:41:22;;;;;;;0.70;0.70;;;;;;;;;;5038070;28;20614;-63
2023/11/04 06:43:52;;;;;;;0.57;0.57;;;;;;;;;;5024807;28;20279;-64
2023/11/04 06:46:20;;;;;;;0.60;0.60;;;;;;;;;;5038869;28;20207;-63
2023/11/04 06:48:48;;;;;;;0.73;0.70;;;;;;;;;;5037969;28;20266;-64
2023/11/04 06:51:18;;;;;;;2.30;0.83;;;;;;;;;;5037792;28;20303;-63
2023/11/04 06:53:46;;;;;;;1.80;0.60;;;;;;;;;;5021871;28;20645;-64
2023/11/04 06:56:16;;;;;;;2.03;0.80;;;;;;;;;;5020486;28;20200;-62
2023/11/04 06:58:44;;;;;;;1.27;0.60;;;;;;;;;;5018592;28;20268;-64
2023/11/04 07:01:15;;;;;;;0.53;0.47;;;;;;;;;;5019222;28;20212;-63
2023/11/04 07:03:45;;;;;;;1.67;0.80;;;;;;;;;;5028701;28;20256;-63
2023/11/04 07:06:14;;;;;;;1.77;0.60;;;;;;;;;;5018341;28;20215;-63
2023/11/04 07:08:42;;;;;;;0.87;0.77;;;;;;;;;;5018322;28;20320;-63
2023/11/04 07:11:14;;;;;;;1.57;0.70;;;;;;;;;;5018179;28;20244;-63
2023/11/04 07:13:44;;;;;;;1.00;0.80;;;;;;;;;;5018186;28;20228;-63
2023/11/04 07:16:15;;;;;;;1.03;0.60;;;;;;;;;;5018001;28;20299;-64
2023/11/04 07:18:44;;;;;;;1.50;0.60;;;;;;;;;;5025705;28;20207;-65
2023/11/04 07:21:12;;;;;;;2.03;0.80;;;;;;;;;;5018210;28;20219;-65
2023/11/04 07:23:41;;;;;;;0.83;0.73;;;;;;;;;;5018136;28;20646;-62
2023/11/04 07:26:09;;;;;;;1.07;0.97;;;;;;;;;;5018161;28;20215;-64
2023/11/04 07:28:37;;;;;;;0.70;0.70;;;;;;;;;;5018379;28;20256;-65
2023/11/04 07:31:07;;;;;;;0.80;0.80;;;;;;;;;;5018019;28;20659;-64
2023/11/04 07:33:36;;;;;;;1.93;0.80;;;;;;;;;;5017939;28;20228;-64
2023/11/04 07:36:08;;;;;;;0.53;0.53;;;;;;;;;;5023002;28;20235;-64
2023/11/04 07:38:36;;;;;;;6.97;0.87;;;;;;;;;;5025343;28;20624;-63
2023/11/04 07:41:06;;;;;;;1.50;0.83;;;;;;;;;;5020946;28;20204;-63
2023/11/04 07:43:34;;;;;;;0.90;0.77;;;;;;;;;;5017992;28;20290;-65
2023/11/04 07:46:02;;;;;;;4.23;0.97;;;;;;;;;;5017879;28;20212;-63
2023/11/04 07:48:32;;;;;;;1.07;0.97;;;;;;;;;;5019228;28;20555;-65
2023/11/04 07:51:01;;;;;;;0.80;0.70;;;;;;;;;;5023495;28;20211;-65
2023/11/04 07:53:29;;;;;;;0.73;0.60;;;;;;;;;;5023478;28;20294;-65
2023/11/04 07:55:57;;;;;;;1.23;0.60;;;;;;;;;;5031484;28;20207;-65
2023/11/04 07:58:25;;;;;;;1.27;0.80;;;;;;;;;;5018493;28;20267;-67
2023/11/04 08:00:54;;;;;;;1.13;1.13;;;;;;;;;;5020664;28;20200;-67
2023/11/04 08:03:23;;;;;;;1.00;0.90;;;;;;;;;;5023426;28;20242;-66
2023/11/04 08:05:53;;;;;;;0.67;0.67;;;;;;;;;;5028337;28;20261;-66
2023/11/04 08:08:22;;;;;;;2.93;0.80;;;;;;;;;;5022582;28;20208;-65
2023/11/04 08:10:50;;;;;;;0.60;0.60;;;;;;;;;;5028401;28;20764;-66
2023/11/04 08:13:19;;;;;;;0.87;0.80;;;;;;;;;;5018428;28;20327;-66
2023/11/04 08:15:47;;;;;;;0.80;0.80;;;;;;;;;;5017832;28;20215;-74
2023/11/04 08:18:15;;;;;;;2.17;0.90;;;;;;;;;;5017833;28;20208;-74
2023/11/04 08:20:43;;;;;;;1.47;0.90;;;;;;;;;;5019830;28;20204;-67
2023/11/04 08:23:13;;;;;;;0.60;0.53;;;;;;;;;;5017735;28;20212;-68
2023/11/04 08:25:41;;;;;;;0.97;0.70;;;;;;;;;;5017206;28;20212;-68
2023/11/04 08:28:10;;;;;;;0.87;0.73;;;;;;;;;;5025658;28;20575;-69
2023/11/04 08:30:53;;;;;;;1.27;0.90;;;;;;;;;;5021369;28;20266;-68
2023/11/04 08:33:30;;;;;;;0.87;0.60;;;;;;;;;;5021421;28;20718;-66
2023/11/04 08:36:03;;;;;;;1.50;0.97;;;;;;;;;;5020888;28;20287;-67
2023/11/04 08:38:32;;;;;;;0.37;0.37;;;;;;;;;;5021338;28;20215;-66
2023/11/04 08:41:01;;;;;;;0.90;0.80;;;;;;;;;;5022133;28;20211;-67
2023/11/04 08:43:29;;;;;;;0.60;0.60;;;;;;;;;;5021429;28;20279;-67
2023/11/04 08:45:56;;;;;;;1.17;0.90;;;;;;;;;;5040853;28;20211;-66
2023/11/04 08:48:24;;;;;;;0.50;0.50;;;;;;;;;;5040915;28;20204;-69
2023/11/04 08:50:52;;;;;;;0.90;0.63;;;;;;;;;;5034475;28;20224;-69
2023/11/04 08:53:20;;;;;;;0.90;0.90;;;;;;;;;;5024465;28;20235;-76
2023/11/04 08:55:50;;;;;;;1.90;0.80;;;;;;;;;;5020958;28;20267;-68
2023/11/04 08:58:18;;;;;;;0.50;0.50;;;;;;;;;;5020918;28;20244;-71
2023/11/04 09:00:47;;;;;;;0.50;0.50;;;;;;;;;;5035396;28;20199;-67
2023/11/04 09:03:16;;;;;;;0.53;0.53;;;;;;;;;;5031067;28;20204;-65
2023/11/04 09:05:44;;;;;;;0.90;0.80;;;;;;;;;;5034611;28;20212;-64
2023/11/04 09:08:12;;;;;;;1.50;0.60;;;;;;;;;;5020426;28;20212;-64
2023/11/04 09:10:40;;;;;;;0.60;0.60;;;;;;;;;;5024694;28;20227;-64
2023/11/04 09:13:10;;;;;;;0.93;0.70;;;;;;;;;;5039559;28;20212;-63
2023/11/04 09:15:44;;;;;;;1.20;0.80;;;;;;;;;;5024152;28;20209;-64
2023/11/04 09:18:12;;;;;;;1.60;0.60;;;;;;;;;;5023577;28;20207;-64
2023/11/04 09:20:43;;;;;;;0.50;0.50;;;;;;;;;;5020121;28;20205;-64
2023/11/04 09:23:13;;;;;;;2.43;0.93;;;;;;;;;;5020312;28;20208;-64
2023/11/04 09:25:42;;;;;;;3.20;1.10;;;;;;;;;;5019931;28;20598;-63
2023/11/04 09:28:12;;;;;;;1.80;0.73;;;;;;;;;;5020253;28;20204;-64
2023/11/04 09:30:40;;;;;;;0.63;0.63;;;;;;;;;;5019981;28;20292;-64
2023/11/04 09:33:09;;;;;;;2.50;0.90;;;;;;;;;;5019903;28;20200;-63
2023/11/04 09:35:37;;;;;;;3.30;0.90;;;;;;;;;;5029162;28;20541;-64
2023/11/04 09:38:06;;;;;;;2.70;1.03;;;;;;;;;;5033065;28;20209;-65
2023/11/04 09:40:35;;;;;;;2.23;0.53;;;;;;;;;;5024832;28;20207;-65
2023/11/04 09:43:03;;;;;;;1.30;0.80;;;;;;;;;;5020952;28;20298;-64
2023/11/04 09:45:34;;;;;;;0.67;0.67;;;;;;;;;;5020758;28;20723;-65
2023/11/04 09:48:03;;;;;;;2.03;0.83;;;;;;;;;;5019969;28;20311;-65
2023/11/04 09:50:31;;;;;;;0.97;0.67;;;;;;;;;;5033605;28;20557;-64
2023/11/04 09:53:00;;;;;;;3.03;0.93;;;;;;;;;;5028350;28;20212;-64
2023/11/04 09:55:28;;;;;;;3.70;0.80;;;;;;;;;;5019561;28;20215;-64
2023/11/04 09:57:56;;;;;;;3.50;0.90;;;;;;;;;;5019553;28;20236;-65
2023/11/04 10:00:43;;;;;;;2.23;0.67;;;;;;;;;;5017036;28;20208;-63
2023/11/04 10:03:11;;;;;;;4.70;0.70;;;;;;;;;;5026232;28;20227;-64
2023/11/04 10:05:39;;;;;;;0.53;0.50;;;;;;;;;;5022866;28;20219;-64
2023/11/04 10:08:07;;;;;;;3.00;0.93;;;;;;;;;;5022034;28;20262;-64
2023/11/04 10:10:35;;;;;;;2.93;0.70;;;;;;;;;;5038643;28;20239;-64
2023/11/04 10:13:04;;;;;;;2.73;0.67;;;;;;;;;;5039520;28;20210;-68
2023/11/04 10:15:35;;;;;;;1.40;0.80;;;;;;;;;;5039493;28;20265;-67
2023/11/04 10:18:14;;;;;;;3.93;0.73;;;;;;;;;;5039137;28;20215;-66
2023/11/04 10:20:44;;;;;;;1.00;0.60;;;;;;;;;;5039116;28;20234;-66
2023/11/04 10:23:14;;;;;;;2.47;0.90;;;;;;;;;;5033265;28;20258;-66
2023/11/04 10:25:42;;;;;;;2.97;0.73;;;;;;;;;;5020660;28;20227;-66
2023/11/04 10:28:12;;;;;;;4.23;1.00;;;;;;;;;;5024365;28;20208;-65
2023/11/04 10:34:05;;;;;;;1.30;0.70;;;;;;;;;;5028123;28;20228;-65
2023/11/04 10:39:51;;;;;;;2.33;0.70;;;;;;;;;;5018577;28;20236;-64
2023/11/04 10:42:22;;;;;;;4.07;0.90;;;;;;;;;;5031781;28;20715;-65
2023/11/04 10:44:53;;;;;;;2.83;1.00;;;;;;;;;;5038114;28;20223;-64
2023/11/04 10:47:24;;;;;;;1.80;0.80;;;;;;;;;;5038655;28;20298;-63
2023/11/04 10:49:56;;;;;;;3.20;0.93;;;;;;;;;;5037496;28;20208;-65
2023/11/04 10:52:29;;;;;;;1.90;0.80;;;;;;;;;;5020198;28;20228;-64
2023/11/04 10:55:02;;;;;;;5.10;1.60;;;;;;;;;;5033281;28;20251;-67
2023/11/04 10:57:31;;;;;;;3.63;0.87;;;;;;;;;;5028862;28;20204;-64
2023/11/04 11:00:11;;;;;;;1.27;0.70;;;;;;;;;;5032066;28;20204;-65
2023/11/04 11:02:39;;;;;;;3.00;1.00;;;;;;;;;;5027005;28;20204;-65
2023/11/04 11:05:11;;;;;;;2.93;0.70;;;;;;;;;;5028393;28;20229;-64
2023/11/04 11:07:41;;;;;;;1.77;0.90;;;;;;;;;;5027645;28;20283;-65
2023/11/04 11:10:11;;;;;;;0.43;0.37;;;;;;;;;;5029645;28;20215;-65
2023/11/04 11:12:43;;;;;;;3.17;0.77;;;;;;;;;;5030309;28;20226;-65
2023/11/04 11:15:12;;;;;;;2.27;0.93;;;;;;;;;;5027627;28;20252;-65
2023/11/04 11:20:47;;;;;;;2.33;0.77;;;;;;;;;;5026576;28;20771;-64
2023/11/04 11:23:25;;;;;;;1.47;0.80;;;;;;;;;;5028023;28;20565;-64
2023/11/04 11:26:02;;;;;;;3.13;1.37;;;;;;;;;;5027413;28;20203;-64
2023/11/04 11:28:35;;;;;;;2.13;0.80;;;;;;;;;;5035396;28;20206;-64
2023/11/04 11:31:03;;;;;;;1.23;1.00;;;;;;;;;;5021437;28;20224;-64
2023/11/04 11:33:31;;;;;;;4.73;0.83;;;;;;;;;;5018533;28;20232;-65
2023/11/04 11:36:02;;;;;;;4.37;1.20;;;;;;;;;;5023132;28;20203;-65
2023/11/04 11:38:34;;;;;;;3.13;1.00;;;;;;;;;;5026688;28;20200;-65
2023/11/04 11:41:03;;;;;;;1.80;0.83;;;;;;;;;;5028040;28;20196;-64
2023/11/04 11:43:33;;;;;;;0.63;0.60;;;;;;;;;;5030764;28;20227;-65
2023/11/04 11:46:05;;;;;;;4.23;0.90;;;;;;;;;;5025948;28;20214;-65
2023/11/04 11:48:38;;;;;;;1.93;0.90;;;;;;;;;;5027910;28;20214;-65
2023/11/04 11:51:11;;;;;;;4.07;1.10;;;;;;;;;;5030253;28;20227;-65
2023/11/04 11:53:42;;;;;;;2.03;0.90;;;;;;;;;;5025114;28;20215;-64
2023/11/04 11:56:13;;;;;;;2.00;0.90;;;;;;;;;;5026555;28;20200;-64
2023/11/04 11:58:42;;;;;;;3.87;0.70;;;;;;;;;;5018473;28;20232;-65
2023/11/04 12:01:11;;;;;;;5.40;1.37;;;;;;;;;;5009188;28;20260;-65
2023/11/04 12:03:39;;;;;;;3.67;0.73;;;;;;;;;;5009321;28;20228;-64
2023/11/04 12:06:11;;;;;;;3.57;1.50;;;;;;;;;;5012581;28;20583;-64
2023/11/04 12:08:39;;;;;;;2.57;0.70;;;;;;;;;;5013443;28;20200;-64
2023/11/04 12:11:08;;;;;;;4.47;0.90;;;;;;;;;;5009821;28;20227;-64
2023/11/04 12:13:36;;;;;;;4.03;1.00;;;;;;;;;;5010938;28;20224;-63
2023/11/04 12:16:05;;;;;;;1.27;0.60;;;;;;;;;;5020138;28;20212;-64
2023/11/04 12:18:34;;;;;;;1.93;0.70;;;;;;;;;;5019784;28;20643;-63
2023/11/04 12:21:02;;;;;;;1.47;0.57;;;;;;;;;;5019736;28;20266;-66
2023/11/04 12:23:33;;;;;;;1.90;0.77;;;;;;;;;;5019892;28;20315;-64
2023/11/04 12:26:01;;;;;;;2.37;1.23;;;;;;;;;;5016829;28;20244;-66
2023/11/04 12:28:30;;;;;;;2.07;0.70;;;;;;;;;;5000278;28;20288;-64
2023/11/04 12:31:01;;;;;;;2.80;0.70;;;;;;;;;;4999897;28;20209;-64
2023/11/04 12:33:30;;;;;;;1.73;0.57;;;;;;;;;;5008809;28;20228;-65
2023/11/04 12:35:59;;;;;;;2.60;1.00;;;;;;;;;;5018765;28;20212;-66
2023/11/04 12:38:36;;;;;;;4.63;0.80;;;;;;;;;;5019880;28;20234;-64
2023/11/04 12:41:09;;;;;;;2.10;0.63;;;;;;;;;;5010376;28;20209;-64
2023/11/04 12:43:38;;;;;;;2.53;0.83;;;;;;;;;;5004957;28;20696;-64
2023/11/04 12:46:08;;;;;;;5.20;0.63;;;;;;;;;;5014077;28;20200;-66
2023/11/04 12:48:37;;;;;;;2.83;1.00;;;;;;;;;;5021225;28;20227;-66
2023/11/04 12:51:06;;;;;;;1.27;0.63;;;;;;;;;;5001372;28;20205;-64
2023/11/04 12:53:34;;;;;;;2.83;0.80;;;;;;;;;;5001244;28;20243;-65
2023/11/04 12:56:04;;;;;;;3.27;0.73;;;;;;;;;;5001269;28;20217;-64
2023/11/04 12:58:33;;;;;;;4.50;1.00;;;;;;;;;;5010397;28;20255;-65
2023/11/04 13:01:01;;;;;;;2.00;0.80;;;;;;;;;;5020643;28;20216;-64
2023/11/04 13:03:29;;;;;;;0.77;0.77;;;;;;;;;;5028377;28;20255;-64
2023/11/04 13:05:58;;;;;;;4.47;1.13;;;;;;;;;;5020838;28;20212;-64
2023/11/04 13:08:27;;;;;;;1.53;0.90;;;;;;;;;;5020527;28;20212;-65
2023/11/04 13:10:58;;;;;;;3.27;0.93;;;;;;;;;;5020460;28;20592;-64
2023/11/04 13:13:28;;;;;;;0.87;0.60;;;;;;;;;;5025547;28;20234;-64
2023/11/04 13:15:56;;;;;;;3.53;0.90;;;;;;;;;;5040058;28;20235;-64
2023/11/04 13:18:24;;;;;;;1.67;0.80;;;;;;;;;;5040281;28;20207;-65
2023/11/04 13:20:53;;;;;;;3.43;0.77;;;;;;;;;;5040079;28;20725;-64
2023/11/04 13:23:21;;;;;;;1.87;0.63;;;;;;;;;;5040339;28;20232;-65
2023/11/04 13:25:49;;;;;;;1.03;0.57;;;;;;;;;;5039973;28;20289;-64
2023/11/04 13:28:17;;;;;;;1.63;0.70;;;;;;;;;;5040020;28;20230;-65
2023/11/04 13:30:48;;;;;;;1.70;0.60;;;;;;;;;;5039819;28;20275;-65
2023/11/04 13:33:16;;;;;;;3.47;0.60;;;;;;;;;;5039651;28;20716;-65
2023/11/04 13:35:46;;;;;;;1.13;0.60;;;;;;;;;;5040039;28;20242;-64
2023/11/04 13:38:15;;;;;;;1.73;0.80;;;;;;;;;;5040223;28;20286;-65
2023/11/04 13:40:44;;;;;;;1.50;0.80;;;;;;;;;;5028103;28;20204;-65
2023/11/04 13:43:13;;;;;;;1.90;0.70;;;;;;;;;;5022625;28;20196;-65
2023/11/04 13:45:41;;;;;;;0.80;0.80;;;;;;;;;;5038791;28;20576;-64
2023/11/04 13:48:11;;;;;;;1.37;0.77;;;;;;;;;;5036422;28;20229;-65
2023/11/04 13:50:39;;;;;;;0.93;0.60;;;;;;;;;;5032556;28;20215;-65
2023/11/04 13:53:07;;;;;;;1.13;0.70;;;;;;;;;;5019618;28;20232;-64
2023/11/04 13:55:35;;;;;;;2.23;0.70;;;;;;;;;;5019420;28;20208;-64
2023/11/04 13:58:04;;;;;;;1.00;0.70;;;;;;;;;;5019495;28;20658;-65
2023/11/04 14:00:32;;;;;;;0.70;0.70;;;;;;;;;;5019916;28;20208;-65
2023/11/04 14:03:00;;;;;;;1.30;0.90;;;;;;;;;;5026494;28;20567;-65
2023/11/04 14:05:30;;;;;;;1.53;1.10;;;;;;;;;;5030283;28;20562;-66
2023/11/04 14:07:58;;;;;;;0.83;0.80;;;;;;;;;;5026757;28;20570;-65
2023/11/04 14:10:27;;;;;;;1.67;0.90;;;;;;;;;;5038902;28;20689;-65
2023/11/04 14:12:55;;;;;;;1.53;1.10;;;;;;;;;;5019679;28;20239;-64
2023/11/04 14:15:23;;;;;;;0.70;0.70;;;;;;;;;;5033387;28;20238;-64
2023/11/04 14:17:52;;;;;;;3.40;0.83;;;;;;;;;;5039291;28;20212;-65
2023/11/04 14:20:20;;;;;;;0.97;0.80;;;;;;;;;;5038820;28;20208;-64
2023/11/04 14:22:50;;;;;;;1.13;0.93;;;;;;;;;;5026294;28;20296;-65
2023/11/04 14:25:18;;;;;;;1.93;1.03;;;;;;;;;;5028001;28;20230;-66
2023/11/04 14:27:47;;;;;;;2.53;0.60;;;;;;;;;;5022069;28;20266;-66
2023/11/04 14:30:16;;;;;;;2.07;0.77;;;;;;;;;;5025524;28;20196;-66
2023/11/04 14:32:47;;;;;;;1.23;0.67;;;;;;;;;;5022315;28;20227;-66
2023/11/04 14:35:23;;;;;;;2.20;0.87;;;;;;;;;;5018657;28;20232;-65
2023/11/04 14:37:55;;;;;;;2.83;0.83;;;;;;;;;;5021602;28;20243;-66
2023/11/04 14:40:24;;;;;;;3.20;0.77;;;;;;;;;;5030978;28;20286;-66
2023/11/04 14:42:53;;;;;;;3.63;0.90;;;;;;;;;;5024438;28;20279;-65
2023/11/04 14:45:21;;;;;;;1.57;0.63;;;;;;;;;;5026901;28;20281;-65
2023/11/04 14:47:51;;;;;;;3.37;0.87;;;;;;;;;;5021216;28;20204;-65
2023/11/04 14:50:19;;;;;;;0.70;0.70;;;;;;;;;;5024861;28;20208;-65
2023/11/04 14:52:50;;;;;;;0.77;0.63;;;;;;;;;;5025657;28;20230;-64
2023/11/04 14:55:23;;;;;;;2.47;0.70;;;;;;;;;;5024298;28;20226;-64
2023/11/04 14:57:52;;;;;;;2.20;0.97;;;;;;;;;;5034131;28;20239;-64
2023/11/04 15:00:21;;;;;;;3.90;0.70;;;;;;;;;;5008417;28;20209;-65
2023/11/04 15:02:51;;;;;;;1.53;0.73;;;;;;;;;;5006805;28;20287;-66
2023/11/04 15:05:19;;;;;;;2.50;0.90;;;;;;;;;;5014335;28;20228;-67